< < Back
Terminal Aerodrome Forecast


Current Version              Previous Versions:   1  2  3  4  5  6  7  8  9  

Terminal Aerodrome Forecast

524
FTUS42 KCAE 280800 AAA
TAFCAE
TAF AMD
KCAE 280857Z 2809/2906 06006KT P6SM BKN250
     FM281500 07008KT P6SM SCT060
     FM290000 07004KT P6SM BKN100=



Latest METAR

419
SAUS80 KWBC 281000
MTRCAE
METAR KCAE 280956Z 00000KT 10SM CLR 11/06 A2994 RMK AO2 SLP136
T01060056


USA.gov is the U.S. government's official web portal to all federal, state and local government web resources and services.